Portola, California
Current Conditions -  °F | °C
As of 10:15 AM on Sunday 25 Jan 2015 (Local Time) from KRTS Reporting Station
Clear Clear  
Wind Chill: 43°   Ceiling: Unl
Heat Index: 43°   Visibility: 10mi
Dew Point: 23°   Wind: 0mph
Humidity: 46%   Direction: NA
Pressure: 30.42"   Gusts: NA
Location:  39.81°N, 120.47°W
Report Text: KRTS 251815Z AUTO 00000KT 10SM CLR 06/M05 A3042 RMK AO2
Loading
Personal Weather Stations






























Interactive Weather Map New forecast layout! Learn more

10-Day Weather Forecast

Advertisements
Track Severe Weather on mobile